sensor_id;sensor_type;location;lat;lon;timestamp;P1;durP1;ratioP1;P2;durP2;ratioP2
63807;SDS011;49961;43.970;22.868;2022-09-27T00:00:50;12.00;;;10.90;;
63807;SDS011;49961;43.970;22.868;2022-09-27T00:01:51;11.70;;;10.73;;
63807;SDS011;49961;43.970;22.868;2022-09-27T00:02:51;12.17;;;11.07;;
63807;SDS011;49961;43.970;22.868;2022-09-27T00:03:52;11.80;;;10.70;;
63807;SDS011;49961;43.970;22.868;2022-09-27T00:04:54;11.80;;;10.70;;
63807;SDS011;49961;43.970;22.868;2022-09-27T00:06:09;10.90;;;9.97;;
63807;SDS011;49961;43.970;22.868;2022-09-27T00:07:10;10.70;;;9.80;;
63807;SDS011;49961;43.970;22.868;2022-09-27T00:08:11;10.47;;;9.47;;
63807;SDS011;49961;43.970;22.868;2022-09-27T00:09:11;9.40;;;8.60;;
63807;SDS011;49961;43.970;22.868;2022-09-27T00:10:12;10.17;;;9.27;;
63807;SDS011;49961;43.970;22.868;2022-09-27T00:11:32;9.47;;;8.57;;
63807;SDS011;49961;43.970;22.868;2022-09-27T00:12:35;9.07;;;8.27;;
63807;SDS011;49961;43.970;22.868;2022-09-27T00:13:35;9.30;;;8.50;;
63807;SDS011;49961;43.970;22.868;2022-09-27T00:14:36;10.03;;;9.03;;
63807;SDS011;49961;43.970;22.868;2022-09-27T00:15:36;8.97;;;8.27;;
63807;SDS011;49961;43.970;22.868;2022-09-27T00:16:37;9.60;;;8.77;;
63807;SDS011;49961;43.970;22.868;2022-09-27T00:17:39;9.53;;;8.73;;
63807;SDS011;49961;43.970;22.868;2022-09-27T00:18:40;10.13;;;9.17;;
63807;SDS011;49961;43.970;22.868;2022-09-27T00:19:40;10.37;;;9.37;;
63807;SDS011;49961;43.970;22.868;2022-09-27T00:20:41;10.13;;;9.23;;
63807;SDS011;49961;43.970;22.868;2022-09-27T00:21:41;10.10;;;9.20;;
63807;SDS011;49961;43.970;22.868;2022-09-27T00:22:42;9.83;;;8.93;;
63807;SDS011;49961;43.970;22.868;2022-09-27T00:23:42;9.53;;;8.70;;
63807;SDS011;49961;43.970;22.868;2022-09-27T00:24:43;9.60;;;8.80;;
63807;SDS011;49961;43.970;22.868;2022-09-27T00:25:53;10.33;;;9.43;;
63807;SDS011;49961;43.970;22.868;2022-09-27T00:26:57;10.83;;;9.73;;
63807;SDS011;49961;43.970;22.868;2022-09-27T00:27:58;10.10;;;9.20;;
63807;SDS011;49961;43.970;22.868;2022-09-27T00:28:58;11.17;;;10.07;;
63807;SDS011;49961;43.970;22.868;2022-09-27T00:29:59;10.83;;;9.77;;
63807;SDS011;49961;43.970;22.868;2022-09-27T00:30:59;10.50;;;9.60;;
63807;SDS011;49961;43.970;22.868;2022-09-27T00:32:00;10.93;;;9.93;;
63807;SDS011;49961;43.970;22.868;2022-09-27T00:33:00;10.30;;;9.40;;
63807;SDS011;49961;43.970;22.868;2022-09-27T00:34:01;10.07;;;9.17;;
63807;SDS011;49961;43.970;22.868;2022-09-27T00:35:02;11.10;;;10.00;;
63807;SDS011;49961;43.970;22.868;2022-09-27T00:36:04;10.87;;;9.93;;
63807;SDS011;49961;43.970;22.868;2022-09-27T00:37:05;10.20;;;9.40;;
63807;SDS011;49961;43.970;22.868;2022-09-27T00:38:06;10.57;;;9.67;;
63807;SDS011;49961;43.970;22.868;2022-09-27T00:39:07;10.73;;;9.73;;
63807;SDS011;49961;43.970;22.868;2022-09-27T00:40:08;10.00;;;9.10;;
63807;SDS011;49961;43.970;22.868;2022-09-27T00:41:16;10.30;;;9.37;;
63807;SDS011;49961;43.970;22.868;2022-09-27T00:42:19;10.23;;;9.33;;
63807;SDS011;49961;43.970;22.868;2022-09-27T00:43:21;10.70;;;9.70;;
63807;SDS011;49961;43.970;22.868;2022-09-27T00:45:26;9.83;;;8.97;;
63807;SDS011;49961;43.970;22.868;2022-09-27T00:47:40;10.13;;;9.23;;
63807;SDS011;49961;43.970;22.868;2022-09-27T00:48:46;10.20;;;9.30;;
63807;SDS011;49961;43.970;22.868;2022-09-27T00:51:21;9.87;;;8.87;;
63807;SDS011;49961;43.970;22.868;2022-09-27T00:52:23;10.47;;;9.50;;
63807;SDS011;49961;43.970;22.868;2022-09-27T00:53:37;10.60;;;9.60;;
63807;SDS011;49961;43.970;22.868;2022-09-27T00:54:46;10.00;;;9.00;;
63807;SDS011;49961;43.970;22.868;2022-09-27T00:55:53;10.17;;;9.17;;
63807;SDS011;49961;43.970;22.868;2022-09-27T00:56:56;10.37;;;9.37;;
63807;SDS011;49961;43.970;22.868;2022-09-27T00:57:58;10.33;;;9.27;;
63807;SDS011;49961;43.970;22.868;2022-09-27T00:59:05;10.23;;;9.33;;
63807;SDS011;49961;43.970;22.868;2022-09-27T01:00:13;10.80;;;9.77;;
63807;SDS011;49961;43.970;22.868;2022-09-27T01:01:15;10.30;;;9.33;;
63807;SDS011;49961;43.970;22.868;2022-09-27T01:02:16;10.67;;;9.67;;
63807;SDS011;49961;43.970;22.868;2022-09-27T01:03:52;9.93;;;9.03;;
63807;SDS011;49961;43.970;22.868;2022-09-27T01:05:03;10.17;;;8.97;;
63807;SDS011;49961;43.970;22.868;2022-09-27T01:06:05;9.93;;;9.13;;
63807;SDS011;49961;43.970;22.868;2022-09-27T01:07:08;9.10;;;8.20;;
63807;SDS011;49961;43.970;22.868;2022-09-27T01:08:08;9.80;;;8.80;;
63807;SDS011;49961;43.970;22.868;2022-09-27T01:09:09;10.23;;;8.90;;
63807;SDS011;49961;43.970;22.868;2022-09-27T01:10:11;9.53;;;8.63;;
63807;SDS011;49961;43.970;22.868;2022-09-27T01:14:09;9.07;;;8.17;;
63807;SDS011;49961;43.970;22.868;2022-09-27T01:18:34;9.23;;;8.33;;
63807;SDS011;49961;43.970;22.868;2022-09-27T01:21:06;9.77;;;8.27;;
63807;SDS011;49961;43.970;22.868;2022-09-27T01:22:23;8.30;;;7.60;;
63807;SDS011;49961;43.970;22.868;2022-09-27T01:30:55;10.00;;;8.57;;
63807;SDS011;49961;43.970;22.868;2022-09-27T01:32:04;8.80;;;7.90;;
63807;SDS011;49961;43.970;22.868;2022-09-27T01:33:26;9.13;;;8.43;;
63807;SDS011;49961;43.970;22.868;2022-09-27T01:36:07;8.77;;;7.87;;
63807;SDS011;49961;43.970;22.868;2022-09-27T01:37:25;8.80;;;7.43;;
63807;SDS011;49961;43.970;22.868;2022-09-27T01:38:30;8.53;;;7.73;;
63807;SDS011;49961;43.970;22.868;2022-09-27T01:40:58;8.90;;;8.00;;
63807;SDS011;49961;43.970;22.868;2022-09-27T01:43:23;8.93;;;7.97;;
63807;SDS011;49961;43.970;22.868;2022-09-27T01:45:46;8.87;;;8.00;;
63807;SDS011;49961;43.970;22.868;2022-09-27T01:46:50;9.70;;;7.20;;
63807;SDS011;49961;43.970;22.868;2022-09-27T01:47:55;9.00;;;8.17;;
63807;SDS011;49961;43.970;22.868;2022-09-27T01:48:59;8.93;;;8.17;;
63807;SDS011;49961;43.970;22.868;2022-09-27T01:50:10;8.70;;;7.90;;
63807;SDS011;49961;43.970;22.868;2022-09-27T01:51:16;9.00;;;8.10;;
63807;SDS011;49961;43.970;22.868;2022-09-27T01:52:21;8.63;;;7.83;;
63807;SDS011;49961;43.970;22.868;2022-09-27T01:53:37;10.03;;;8.00;;
63807;SDS011;49961;43.970;22.868;2022-09-27T01:54:42;8.20;;;7.50;;
63807;SDS011;49961;43.970;22.868;2022-09-27T01:55:48;9.00;;;8.10;;
63807;SDS011;49961;43.970;22.868;2022-09-27T01:56:52;8.73;;;8.00;;
63807;SDS011;49961;43.970;22.868;2022-09-27T01:58:07;8.47;;;7.73;;
63807;SDS011;49961;43.970;22.868;2022-09-27T01:59:17;8.30;;;7.53;;
63807;SDS011;49961;43.970;22.868;2022-09-27T02:00:21;8.53;;;7.83;;
63807;SDS011;49961;43.970;22.868;2022-09-27T02:01:22;8.63;;;7.83;;
63807;SDS011;49961;43.970;22.868;2022-09-27T02:02:26;8.20;;;7.50;;
63807;SDS011;49961;43.970;22.868;2022-09-27T02:03:36;8.40;;;7.60;;
63807;SDS011;49961;43.970;22.868;2022-09-27T02:04:41;8.43;;;7.73;;
63807;SDS011;49961;43.970;22.868;2022-09-27T02:05:49;8.43;;;7.63;;
63807;SDS011;49961;43.970;22.868;2022-09-27T02:07:03;8.17;;;7.47;;
63807;SDS011;49961;43.970;22.868;2022-09-27T02:08:17;8.10;;;7.40;;
63807;SDS011;49961;43.970;22.868;2022-09-27T02:09:40;8.67;;;7.80;;
63807;SDS011;49961;43.970;22.868;2022-09-27T02:10:47;8.53;;;7.30;;
63807;SDS011;49961;43.970;22.868;2022-09-27T02:11:54;8.33;;;7.53;;
63807;SDS011;49961;43.970;22.868;2022-09-27T02:13:04;8.30;;;7.50;;
63807;SDS011;49961;43.970;22.868;2022-09-27T02:15:19;8.23;;;7.53;;
63807;SDS011;49961;43.970;22.868;2022-09-27T02:16:33;8.87;;;8.07;;
63807;SDS011;49961;43.970;22.868;2022-09-27T02:18:01;8.40;;;7.70;;
63807;SDS011;49961;43.970;22.868;2022-09-27T02:19:08;8.23;;;7.53;;
63807;SDS011;49961;43.970;22.868;2022-09-27T02:20:21;9.63;;;8.67;;
63807;SDS011;49961;43.970;22.868;2022-09-27T02:21:38;9.27;;;8.37;;
63807;SDS011;49961;43.970;22.868;2022-09-27T02:22:48;9.50;;;8.60;;
63807;SDS011;49961;43.970;22.868;2022-09-27T02:23:58;8.93;;;8.13;;
63807;SDS011;49961;43.970;22.868;2022-09-27T02:25:15;9.20;;;8.30;;
63807;SDS011;49961;43.970;22.868;2022-09-27T02:26:38;9.13;;;8.33;;
63807;SDS011;49961;43.970;22.868;2022-09-27T02:29:47;9.13;;;8.10;;
63807;SDS011;49961;43.970;22.868;2022-09-27T02:30:53;8.67;;;7.97;;
63807;SDS011;49961;43.970;22.868;2022-09-27T02:31:54;9.13;;;8.17;;
63807;SDS011;49961;43.970;22.868;2022-09-27T02:32:55;9.20;;;8.30;;
63807;SDS011;49961;43.970;22.868;2022-09-27T02:34:00;9.40;;;8.40;;
63807;SDS011;49961;43.970;22.868;2022-09-27T02:35:09;8.80;;;8.00;;
63807;SDS011;49961;43.970;22.868;2022-09-27T02:36:15;9.00;;;8.10;;
63807;SDS011;49961;43.970;22.868;2022-09-27T02:37:16;8.93;;;8.13;;
63807;SDS011;49961;43.970;22.868;2022-09-27T02:38:17;9.60;;;8.70;;
63807;SDS011;49961;43.970;22.868;2022-09-27T02:39:18;9.10;;;8.20;;
63807;SDS011;49961;43.970;22.868;2022-09-27T02:40:19;9.20;;;7.90;;
63807;SDS011;49961;43.970;22.868;2022-09-27T02:41:20;10.20;;;8.70;;
63807;SDS011;49961;43.970;22.868;2022-09-27T02:42:21;8.73;;;8.03;;
63807;SDS011;49961;43.970;22.868;2022-09-27T02:43:23;9.20;;;8.40;;
63807;SDS011;49961;43.970;22.868;2022-09-27T02:44:28;9.13;;;8.13;;
63807;SDS011;49961;43.970;22.868;2022-09-27T02:45:30;9.10;;;8.30;;
63807;SDS011;49961;43.970;22.868;2022-09-27T02:47:02;10.10;;;9.10;;
63807;SDS011;49961;43.970;22.868;2022-09-27T02:49:22;9.70;;;8.90;;
63807;SDS011;49961;43.970;22.868;2022-09-27T02:50:52;10.03;;;9.03;;
63807;SDS011;49961;43.970;22.868;2022-09-27T02:53:19;9.57;;;8.77;;
63807;SDS011;49961;43.970;22.868;2022-09-27T02:59:19;9.70;;;8.90;;
63807;SDS011;49961;43.970;22.868;2022-09-27T03:00:56;10.20;;;9.20;;
63807;SDS011;49961;43.970;22.868;2022-09-27T03:02:31;10.07;;;9.17;;
63807;SDS011;49961;43.970;22.868;2022-09-27T03:04:54;10.53;;;9.00;;
63807;SDS011;49961;43.970;22.868;2022-09-27T03:06:00;11.97;;;9.10;;
63807;SDS011;49961;43.970;22.868;2022-09-27T03:07:05;10.10;;;9.00;;
63807;SDS011;49961;43.970;22.868;2022-09-27T03:08:06;9.87;;;8.87;;
63807;SDS011;49961;43.970;22.868;2022-09-27T03:09:42;9.40;;;8.60;;
63807;SDS011;49961;43.970;22.868;2022-09-27T03:10:44;10.13;;;9.23;;
63807;SDS011;49961;43.970;22.868;2022-09-27T03:11:45;10.50;;;9.50;;
63807;SDS011;49961;43.970;22.868;2022-09-27T03:12:46;10.33;;;9.33;;
63807;SDS011;49961;43.970;22.868;2022-09-27T03:13:46;10.50;;;9.50;;
63807;SDS011;49961;43.970;22.868;2022-09-27T03:14:47;10.23;;;9.30;;
63807;SDS011;49961;43.970;22.868;2022-09-27T03:15:49;10.63;;;9.73;;
63807;SDS011;49961;43.970;22.868;2022-09-27T03:16:49;10.60;;;9.70;;
63807;SDS011;49961;43.970;22.868;2022-09-27T03:17:49;11.17;;;10.10;;
63807;SDS011;49961;43.970;22.868;2022-09-27T03:18:50;10.17;;;9.33;;
63807;SDS011;49961;43.970;22.868;2022-09-27T03:19:51;10.60;;;9.70;;
63807;SDS011;49961;43.970;22.868;2022-09-27T03:20:52;10.57;;;9.67;;
63807;SDS011;49961;43.970;22.868;2022-09-27T03:21:53;10.50;;;9.50;;
63807;SDS011;49961;43.970;22.868;2022-09-27T03:22:53;10.80;;;9.90;;
63807;SDS011;49961;43.970;22.868;2022-09-27T03:23:55;11.33;;;10.23;;
63807;SDS011;49961;43.970;22.868;2022-09-27T03:24:55;11.37;;;10.40;;
63807;SDS011;49961;43.970;22.868;2022-09-27T03:25:56;11.00;;;10.03;;
63807;SDS011;49961;43.970;22.868;2022-09-27T03:26:57;12.07;;;10.60;;
63807;SDS011;49961;43.970;22.868;2022-09-27T03:27:57;10.87;;;9.87;;
63807;SDS011;49961;43.970;22.868;2022-09-27T03:28:57;11.73;;;10.70;;
63807;SDS011;49961;43.970;22.868;2022-09-27T03:29:58;11.70;;;10.50;;
63807;SDS011;49961;43.970;22.868;2022-09-27T03:30:58;11.00;;;10.10;;
63807;SDS011;49961;43.970;22.868;2022-09-27T03:31:59;10.67;;;9.77;;
63807;SDS011;49961;43.970;22.868;2022-09-27T03:32:59;12.00;;;9.50;;
63807;SDS011;49961;43.970;22.868;2022-09-27T03:34:00;10.97;;;10.00;;
63807;SDS011;49961;43.970;22.868;2022-09-27T03:35:00;10.97;;;9.87;;
63807;SDS011;49961;43.970;22.868;2022-09-27T03:36:01;10.70;;;9.70;;
63807;SDS011;49961;43.970;22.868;2022-09-27T03:37:02;10.57;;;9.67;;
63807;SDS011;49961;43.970;22.868;2022-09-27T03:38:03;10.83;;;9.73;;
63807;SDS011;49961;43.970;22.868;2022-09-27T03:39:04;10.37;;;9.47;;
63807;SDS011;49961;43.970;22.868;2022-09-27T03:40:05;10.47;;;9.47;;
63807;SDS011;49961;43.970;22.868;2022-09-27T03:41:06;10.37;;;9.47;;
63807;SDS011;49961;43.970;22.868;2022-09-27T03:42:06;11.57;;;10.40;;
63807;SDS011;49961;43.970;22.868;2022-09-27T03:43:07;11.50;;;10.37;;
63807;SDS011;49961;43.970;22.868;2022-09-27T03:44:08;10.97;;;9.97;;
63807;SDS011;49961;43.970;22.868;2022-09-27T03:45:09;11.43;;;10.27;;
63807;SDS011;49961;43.970;22.868;2022-09-27T03:46:10;10.60;;;9.60;;
63807;SDS011;49961;43.970;22.868;2022-09-27T03:47:11;10.67;;;9.77;;
63807;SDS011;49961;43.970;22.868;2022-09-27T03:48:11;11.00;;;10.00;;
63807;SDS011;49961;43.970;22.868;2022-09-27T03:49:12;11.10;;;10.10;;
63807;SDS011;49961;43.970;22.868;2022-09-27T03:50:12;10.90;;;9.77;;
63807;SDS011;49961;43.970;22.868;2022-09-27T03:51:13;11.43;;;10.37;;
63807;SDS011;49961;43.970;22.868;2022-09-27T03:52:14;10.73;;;9.73;;
63807;SDS011;49961;43.970;22.868;2022-09-27T03:53:15;11.53;;;10.40;;
63807;SDS011;49961;43.970;22.868;2022-09-27T03:54:16;10.40;;;9.53;;
63807;SDS011;49961;43.970;22.868;2022-09-27T03:55:16;10.57;;;9.57;;
63807;SDS011;49961;43.970;22.868;2022-09-27T03:56:17;10.90;;;10.00;;
63807;SDS011;49961;43.970;22.868;2022-09-27T03:57:17;11.13;;;10.13;;
63807;SDS011;49961;43.970;22.868;2022-09-27T03:58:18;10.90;;;9.97;;
63807;SDS011;49961;43.970;22.868;2022-09-27T03:59:18;11.03;;;9.93;;
63807;SDS011;49961;43.970;22.868;2022-09-27T04:00:19;10.73;;;9.67;;
63807;SDS011;49961;43.970;22.868;2022-09-27T04:01:19;11.10;;;10.00;;
63807;SDS011;49961;43.970;22.868;2022-09-27T04:02:20;10.60;;;9.73;;
63807;SDS011;49961;43.970;22.868;2022-09-27T04:03:20;11.30;;;10.40;;
63807;SDS011;49961;43.970;22.868;2022-09-27T04:04:21;10.57;;;9.67;;
63807;SDS011;49961;43.970;22.868;2022-09-27T04:05:22;15.37;;;10.50;;
63807;SDS011;49961;43.970;22.868;2022-09-27T04:06:23;10.63;;;9.37;;
63807;SDS011;49961;43.970;22.868;2022-09-27T04:07:26;10.67;;;9.57;;
63807;SDS011;49961;43.970;22.868;2022-09-27T04:08:26;10.80;;;9.80;;
63807;SDS011;49961;43.970;22.868;2022-09-27T04:09:26;11.73;;;10.43;;
63807;SDS011;49961;43.970;22.868;2022-09-27T04:10:27;11.10;;;10.20;;
63807;SDS011;49961;43.970;22.868;2022-09-27T04:11:27;11.07;;;10.07;;
63807;SDS011;49961;43.970;22.868;2022-09-27T04:12:28;10.97;;;9.63;;
63807;SDS011;49961;43.970;22.868;2022-09-27T04:13:29;10.60;;;9.80;;
63807;SDS011;49961;43.970;22.868;2022-09-27T04:14:29;10.93;;;10.03;;
63807;SDS011;49961;43.970;22.868;2022-09-27T04:15:29;11.33;;;10.23;;
63807;SDS011;49961;43.970;22.868;2022-09-27T04:16:30;14.73;;;10.70;;
63807;SDS011;49961;43.970;22.868;2022-09-27T04:17:31;11.13;;;10.13;;
63807;SDS011;49961;43.970;22.868;2022-09-27T04:18:32;13.13;;;11.17;;
63807;SDS011;49961;43.970;22.868;2022-09-27T04:19:32;11.27;;;10.37;;
63807;SDS011;49961;43.970;22.868;2022-09-27T04:20:33;11.77;;;10.57;;
63807;SDS011;49961;43.970;22.868;2022-09-27T04:21:35;11.83;;;10.67;;
63807;SDS011;49961;43.970;22.868;2022-09-27T04:22:39;12.27;;;11.27;;
63807;SDS011;49961;43.970;22.868;2022-09-27T04:23:41;11.83;;;10.83;;
63807;SDS011;49961;43.970;22.868;2022-09-27T04:24:41;12.20;;;11.10;;
63807;SDS011;49961;43.970;22.868;2022-09-27T04:25:41;11.83;;;10.63;;
63807;SDS011;49961;43.970;22.868;2022-09-27T04:26:42;12.13;;;11.03;;
63807;SDS011;49961;43.970;22.868;2022-09-27T04:27:43;12.47;;;11.27;;
63807;SDS011;49961;43.970;22.868;2022-09-27T04:28:44;12.00;;;10.80;;
63807;SDS011;49961;43.970;22.868;2022-09-27T04:29:45;11.63;;;10.43;;
63807;SDS011;49961;43.970;22.868;2022-09-27T04:30:45;12.43;;;11.10;;
63807;SDS011;49961;43.970;22.868;2022-09-27T04:31:46;12.13;;;11.10;;
63807;SDS011;49961;43.970;22.868;2022-09-27T04:32:46;11.60;;;10.60;;
63807;SDS011;49961;43.970;22.868;2022-09-27T04:33:47;12.13;;;11.03;;
63807;SDS011;49961;43.970;22.868;2022-09-27T04:34:47;12.17;;;10.87;;
63807;SDS011;49961;43.970;22.868;2022-09-27T04:36:10;11.70;;;10.53;;
63807;SDS011;49961;43.970;22.868;2022-09-27T04:37:25;11.70;;;10.70;;
63807;SDS011;49961;43.970;22.868;2022-09-27T04:38:26;12.23;;;11.07;;
63807;SDS011;49961;43.970;22.868;2022-09-27T04:39:26;13.07;;;11.77;;
63807;SDS011;49961;43.970;22.868;2022-09-27T04:40:27;12.67;;;11.50;;
63807;SDS011;49961;43.970;22.868;2022-09-27T04:41:28;12.37;;;11.30;;
63807;SDS011;49961;43.970;22.868;2022-09-27T04:42:29;13.47;;;11.97;;
63807;SDS011;49961;43.970;22.868;2022-09-27T04:43:29;19.67;;;17.80;;
63807;SDS011;49961;43.970;22.868;2022-09-27T04:44:29;12.67;;;11.37;;
63807;SDS011;49961;43.970;22.868;2022-09-27T04:45:30;12.77;;;11.60;;
63807;SDS011;49961;43.970;22.868;2022-09-27T04:46:31;12.43;;;11.23;;
63807;SDS011;49961;43.970;22.868;2022-09-27T04:47:31;24.97;;;22.63;;
63807;SDS011;49961;43.970;22.868;2022-09-27T04:48:33;14.57;;;13.17;;
63807;SDS011;49961;43.970;22.868;2022-09-27T04:49:33;12.27;;;11.10;;
63807;SDS011;49961;43.970;22.868;2022-09-27T04:50:34;12.27;;;10.97;;
63807;SDS011;49961;43.970;22.868;2022-09-27T04:51:34;12.23;;;11.20;;
63807;SDS011;49961;43.970;22.868;2022-09-27T04:52:35;12.10;;;11.00;;
63807;SDS011;49961;43.970;22.868;2022-09-27T04:53:36;11.10;;;10.20;;
63807;SDS011;49961;43.970;22.868;2022-09-27T04:54:37;11.53;;;10.53;;
63807;SDS011;49961;43.970;22.868;2022-09-27T04:55:37;10.97;;;9.97;;
63807;SDS011;49961;43.970;22.868;2022-09-27T04:56:37;11.63;;;10.70;;
63807;SDS011;49961;43.970;22.868;2022-09-27T04:57:38;12.67;;;11.57;;
63807;SDS011;49961;43.970;22.868;2022-09-27T04:58:38;13.57;;;12.27;;
63807;SDS011;49961;43.970;22.868;2022-09-27T04:59:39;13.37;;;12.07;;
63807;SDS011;49961;43.970;22.868;2022-09-27T05:00:41;13.93;;;12.53;;
63807;SDS011;49961;43.970;22.868;2022-09-27T05:01:42;13.27;;;12.07;;
63807;SDS011;49961;43.970;22.868;2022-09-27T05:02:43;13.50;;;12.30;;
63807;SDS011;49961;43.970;22.868;2022-09-27T05:03:44;13.47;;;12.17;;
63807;SDS011;49961;43.970;22.868;2022-09-27T05:04:44;13.07;;;11.80;;
63807;SDS011;49961;43.970;22.868;2022-09-27T05:05:45;13.60;;;12.50;;
63807;SDS011;49961;43.970;22.868;2022-09-27T05:06:45;16.57;;;15.07;;
63807;SDS011;49961;43.970;22.868;2022-09-27T05:07:46;15.10;;;13.70;;
63807;SDS011;49961;43.970;22.868;2022-09-27T05:08:46;15.60;;;14.07;;
63807;SDS011;49961;43.970;22.868;2022-09-27T05:09:47;15.20;;;13.73;;
63807;SDS011;49961;43.970;22.868;2022-09-27T05:10:47;14.00;;;12.70;;
63807;SDS011;49961;43.970;22.868;2022-09-27T05:11:48;12.33;;;11.23;;
63807;SDS011;49961;43.970;22.868;2022-09-27T05:12:48;12.80;;;11.67;;
63807;SDS011;49961;43.970;22.868;2022-09-27T05:13:49;13.30;;;11.93;;
63807;SDS011;49961;43.970;22.868;2022-09-27T05:14:49;12.63;;;11.33;;
63807;SDS011;49961;43.970;22.868;2022-09-27T05:15:50;12.73;;;11.53;;
63807;SDS011;49961;43.970;22.868;2022-09-27T05:16:52;12.60;;;11.40;;
63807;SDS011;49961;43.970;22.868;2022-09-27T05:17:53;12.37;;;11.07;;
63807;SDS011;49961;43.970;22.868;2022-09-27T05:18:53;12.43;;;11.13;;
63807;SDS011;49961;43.970;22.868;2022-09-27T05:19:54;12.20;;;10.90;;
63807;SDS011;49961;43.970;22.868;2022-09-27T05:20:54;12.20;;;10.87;;
63807;SDS011;49961;43.970;22.868;2022-09-27T05:21:57;12.33;;;11.13;;
63807;SDS011;49961;43.970;22.868;2022-09-27T05:22:58;12.40;;;11.40;;
63807;SDS011;49961;43.970;22.868;2022-09-27T05:23:58;11.23;;;10.30;;
63807;SDS011;49961;43.970;22.868;2022-09-27T05:25:00;11.00;;;10.00;;
63807;SDS011;49961;43.970;22.868;2022-09-27T05:26:04;11.60;;;10.50;;
63807;SDS011;49961;43.970;22.868;2022-09-27T05:27:06;10.63;;;9.80;;
63807;SDS011;49961;43.970;22.868;2022-09-27T05:28:08;11.73;;;10.63;;
63807;SDS011;49961;43.970;22.868;2022-09-27T05:29:09;11.50;;;10.50;;
63807;SDS011;49961;43.970;22.868;2022-09-27T05:30:10;11.50;;;10.53;;
63807;SDS011;49961;43.970;22.868;2022-09-27T05:31:11;11.10;;;10.10;;
63807;SDS011;49961;43.970;22.868;2022-09-27T05:32:13;11.07;;;10.17;;
63807;SDS011;49961;43.970;22.868;2022-09-27T05:33:14;11.53;;;10.43;;
63807;SDS011;49961;43.970;22.868;2022-09-27T05:34:14;10.97;;;9.97;;
63807;SDS011;49961;43.970;22.868;2022-09-27T05:35:15;11.03;;;10.07;;
63807;SDS011;49961;43.970;22.868;2022-09-27T05:36:18;10.97;;;9.97;;
63807;SDS011;49961;43.970;22.868;2022-09-27T05:37:18;10.50;;;9.57;;
63807;SDS011;49961;43.970;22.868;2022-09-27T05:38:19;11.03;;;10.03;;
63807;SDS011;49961;43.970;22.868;2022-09-27T05:39:20;10.97;;;9.97;;
63807;SDS011;49961;43.970;22.868;2022-09-27T05:40:20;11.37;;;10.20;;
63807;SDS011;49961;43.970;22.868;2022-09-27T05:41:24;9.83;;;9.03;;
63807;SDS011;49961;43.970;22.868;2022-09-27T05:42:25;11.90;;;10.80;;
63807;SDS011;49961;43.970;22.868;2022-09-27T05:43:25;10.70;;;9.70;;
63807;SDS011;49961;43.970;22.868;2022-09-27T05:44:27;10.40;;;9.50;;
63807;SDS011;49961;43.970;22.868;2022-09-27T05:45:27;10.27;;;9.37;;
63807;SDS011;49961;43.970;22.868;2022-09-27T05:46:28;10.57;;;9.67;;
63807;SDS011;49961;43.970;22.868;2022-09-27T05:47:28;11.57;;;9.77;;
63807;SDS011;49961;43.970;22.868;2022-09-27T05:48:29;10.40;;;9.50;;
63807;SDS011;49961;43.970;22.868;2022-09-27T05:49:32;11.17;;;10.17;;
63807;SDS011;49961;43.970;22.868;2022-09-27T05:50:36;10.37;;;9.57;;
63807;SDS011;49961;43.970;22.868;2022-09-27T05:51:37;10.90;;;9.73;;
63807;SDS011;49961;43.970;22.868;2022-09-27T05:52:37;9.80;;;9.00;;
63807;SDS011;49961;43.970;22.868;2022-09-27T05:53:37;10.90;;;9.87;;
63807;SDS011;49961;43.970;22.868;2022-09-27T05:54:38;10.07;;;9.17;;
63807;SDS011;49961;43.970;22.868;2022-09-27T05:55:38;9.80;;;8.67;;
63807;SDS011;49961;43.970;22.868;2022-09-27T05:56:39;10.73;;;9.63;;
63807;SDS011;49961;43.970;22.868;2022-09-27T05:57:40;10.20;;;9.33;;
63807;SDS011;49961;43.970;22.868;2022-09-27T05:58:40;11.03;;;9.57;;
63807;SDS011;49961;43.970;22.868;2022-09-27T05:59:40;11.10;;;10.07;;
63807;SDS011;49961;43.970;22.868;2022-09-27T06:00:41;13.33;;;10.17;;
63807;SDS011;49961;43.970;22.868;2022-09-27T06:01:42;11.70;;;10.50;;
63807;SDS011;49961;43.970;22.868;2022-09-27T06:02:42;9.87;;;9.07;;
63807;SDS011;49961;43.970;22.868;2022-09-27T06:03:43;10.57;;;9.57;;
63807;SDS011;49961;43.970;22.868;2022-09-27T06:04:45;10.47;;;9.57;;
63807;SDS011;49961;43.970;22.868;2022-09-27T06:05:45;9.93;;;9.13;;
63807;SDS011;49961;43.970;22.868;2022-09-27T06:06:46;10.20;;;9.37;;
63807;SDS011;49961;43.970;22.868;2022-09-27T06:07:47;10.93;;;9.83;;
63807;SDS011;49961;43.970;22.868;2022-09-27T06:08:48;11.03;;;10.07;;
63807;SDS011;49961;43.970;22.868;2022-09-27T06:09:49;11.07;;;9.97;;
63807;SDS011;49961;43.970;22.868;2022-09-27T06:10:49;12.13;;;10.77;;
63807;SDS011;49961;43.970;22.868;2022-09-27T06:11:50;11.50;;;10.30;;
63807;SDS011;49961;43.970;22.868;2022-09-27T06:12:51;11.03;;;10.03;;
63807;SDS011;49961;43.970;22.868;2022-09-27T06:13:51;14.20;;;12.83;;
63807;SDS011;49961;43.970;22.868;2022-09-27T06:14:52;12.07;;;11.07;;
63807;SDS011;49961;43.970;22.868;2022-09-27T06:15:53;11.20;;;10.10;;
63807;SDS011;49961;43.970;22.868;2022-09-27T06:16:53;10.33;;;9.27;;
63807;SDS011;49961;43.970;22.868;2022-09-27T06:17:54;9.87;;;9.07;;
63807;SDS011;49961;43.970;22.868;2022-09-27T06:18:55;10.73;;;9.60;;
63807;SDS011;49961;43.970;22.868;2022-09-27T06:19:56;10.80;;;9.90;;
63807;SDS011;49961;43.970;22.868;2022-09-27T06:21:00;11.00;;;10.00;;
63807;SDS011;49961;43.970;22.868;2022-09-27T06:22:01;10.87;;;9.33;;
63807;SDS011;49961;43.970;22.868;2022-09-27T06:23:06;10.23;;;9.23;;
63807;SDS011;49961;43.970;22.868;2022-09-27T06:24:11;10.10;;;9.20;;
63807;SDS011;49961;43.970;22.868;2022-09-27T06:25:11;10.50;;;9.40;;
63807;SDS011;49961;43.970;22.868;2022-09-27T06:26:12;12.37;;;10.40;;
63807;SDS011;49961;43.970;22.868;2022-09-27T06:27:13;12.03;;;10.93;;
63807;SDS011;49961;43.970;22.868;2022-09-27T06:28:13;11.83;;;10.73;;
63807;SDS011;49961;43.970;22.868;2022-09-27T06:29:14;9.80;;;8.80;;
63807;SDS011;49961;43.970;22.868;2022-09-27T06:30:15;9.90;;;9.00;;
63807;SDS011;49961;43.970;22.868;2022-09-27T06:31:16;10.70;;;9.70;;
63807;SDS011;49961;43.970;22.868;2022-09-27T06:32:16;10.53;;;9.53;;
63807;SDS011;49961;43.970;22.868;2022-09-27T06:33:17;19.67;;;17.87;;
63807;SDS011;49961;43.970;22.868;2022-09-27T06:34:19;15.73;;;14.23;;
63807;SDS011;49961;43.970;22.868;2022-09-27T06:35:19;15.10;;;13.50;;
63807;SDS011;49961;43.970;22.868;2022-09-27T06:36:20;11.87;;;10.67;;
63807;SDS011;49961;43.970;22.868;2022-09-27T06:37:23;10.23;;;9.33;;
63807;SDS011;49961;43.970;22.868;2022-09-27T06:38:26;9.57;;;8.63;;
63807;SDS011;49961;43.970;22.868;2022-09-27T06:39:26;9.70;;;8.80;;
63807;SDS011;49961;43.970;22.868;2022-09-27T06:40:27;9.80;;;8.87;;
63807;SDS011;49961;43.970;22.868;2022-09-27T06:41:28;9.77;;;8.83;;
63807;SDS011;49961;43.970;22.868;2022-09-27T06:42:28;9.70;;;8.70;;
63807;SDS011;49961;43.970;22.868;2022-09-27T06:43:29;9.90;;;9.00;;
63807;SDS011;49961;43.970;22.868;2022-09-27T06:44:30;9.20;;;8.37;;
63807;SDS011;49961;43.970;22.868;2022-09-27T06:45:31;9.50;;;8.60;;
63807;SDS011;49961;43.970;22.868;2022-09-27T06:46:31;9.87;;;8.87;;